sensor_id;sensor_type;location;lat;lon;timestamp;pressure;altitude;pressure_sealevel;temperature;humidity
46111;BME280;31849;55.992;37.252;2023-02-03T00:00:05;98309.63;;;0.39;65.47
46111;BME280;31849;55.992;37.252;2023-02-03T00:05:11;98308.13;;;0.50;64.86
46111;BME280;31849;55.992;37.252;2023-02-03T00:10:14;98305.19;;;0.75;64.34
46111;BME280;31849;55.992;37.252;2023-02-03T00:15:22;98296.25;;;0.52;65.03
46111;BME280;31849;55.992;37.252;2023-02-03T00:20:27;98306.00;;;0.74;64.51
46111;BME280;31849;55.992;37.252;2023-02-03T00:25:31;98312.59;;;0.61;65.27
46111;BME280;31849;55.992;37.252;2023-02-03T00:30:35;98300.53;;;0.54;65.38
46111;BME280;31849;55.992;37.252;2023-02-03T00:35:40;98302.94;;;0.47;65.16
46111;BME280;31849;55.992;37.252;2023-02-03T00:40:51;98305.84;;;0.64;65.21
46111;BME280;31849;55.992;37.252;2023-02-03T00:45:54;98304.66;;;0.47;65.74
46111;BME280;31849;55.992;37.252;2023-02-03T00:50:59;98310.44;;;0.38;66.20
46111;BME280;31849;55.992;37.252;2023-02-03T00:56:03;98303.00;;;0.50;66.07
46111;BME280;31849;55.992;37.252;2023-02-03T01:01:13;98296.47;;;0.21;66.14
46111;BME280;31849;55.992;37.252;2023-02-03T01:06:19;98294.44;;;0.47;65.31
46111;BME280;31849;55.992;37.252;2023-02-03T01:11:25;98301.16;;;0.42;66.22
46111;BME280;31849;55.992;37.252;2023-02-03T01:16:29;98295.22;;;0.44;65.94
46111;BME280;31849;55.992;37.252;2023-02-03T01:21:38;98288.47;;;0.46;65.90
46111;BME280;31849;55.992;37.252;2023-02-03T01:26:42;98282.47;;;0.46;66.06
46111;BME280;31849;55.992;37.252;2023-02-03T01:31:46;98293.28;;;0.32;66.40
46111;BME280;31849;55.992;37.252;2023-02-03T01:36:51;98292.88;;;0.55;65.63
46111;BME280;31849;55.992;37.252;2023-02-03T01:47:54;98296.03;;;0.40;66.23
46111;BME280;31849;55.992;37.252;2023-02-03T01:53:06;98291.19;;;0.56;65.49
46111;BME280;31849;55.992;37.252;2023-02-03T01:58:13;98287.00;;;0.61;65.29
46111;BME280;31849;55.992;37.252;2023-02-03T02:03:20;98281.88;;;0.61;65.76
46111;BME280;31849;55.992;37.252;2023-02-03T02:08:28;98284.97;;;0.43;66.35
46111;BME280;31849;55.992;37.252;2023-02-03T02:13:33;98286.63;;;0.39;66.02
46111;BME280;31849;55.992;37.252;2023-02-03T02:18:48;98286.00;;;0.52;66.35
46111;BME280;31849;55.992;37.252;2023-02-03T02:37:31;98277.22;;;0.38;67.19
46111;BME280;31849;55.992;37.252;2023-02-03T02:43:06;98275.44;;;0.35;67.19
46111;BME280;31849;55.992;37.252;2023-02-03T02:48:16;98271.38;;;0.45;67.13
46111;BME280;31849;55.992;37.252;2023-02-03T02:53:27;98273.78;;;0.36;67.21
46111;BME280;31849;55.992;37.252;2023-02-03T02:58:35;98267.88;;;0.40;67.16
46111;BME280;31849;55.992;37.252;2023-02-03T03:03:40;98254.34;;;0.46;67.20
46111;BME280;31849;55.992;37.252;2023-02-03T03:08:50;98270.66;;;0.52;66.71
46111;BME280;31849;55.992;37.252;2023-02-03T03:13:56;98275.09;;;0.61;66.78
46111;BME280;31849;55.992;37.252;2023-02-03T03:19:02;98277.63;;;0.60;66.93
46111;BME280;31849;55.992;37.252;2023-02-03T03:24:10;98275.16;;;0.66;66.64
46111;BME280;31849;55.992;37.252;2023-02-03T03:29:19;98266.41;;;0.53;67.17
46111;BME280;31849;55.992;37.252;2023-02-03T03:34:24;98264.41;;;0.37;68.19
46111;BME280;31849;55.992;37.252;2023-02-03T03:39:37;98276.38;;;0.39;68.32
46111;BME280;31849;55.992;37.252;2023-02-03T03:44:50;98280.59;;;0.37;68.46
46111;BME280;31849;55.992;37.252;2023-02-03T03:49:56;98268.88;;;0.48;68.32
46111;BME280;31849;55.992;37.252;2023-02-03T03:55:07;98260.34;;;0.48;68.08
46111;BME280;31849;55.992;37.252;2023-02-03T04:00:16;98276.66;;;0.55;67.95
46111;BME280;31849;55.992;37.252;2023-02-03T04:05:23;98270.00;;;0.63;67.82
46111;BME280;31849;55.992;37.252;2023-02-03T04:10:30;98273.28;;;0.56;67.75
46111;BME280;31849;55.992;37.252;2023-02-03T04:15:34;98276.72;;;0.58;67.71
46111;BME280;31849;55.992;37.252;2023-02-03T04:20:37;98270.88;;;0.65;67.98
46111;BME280;31849;55.992;37.252;2023-02-03T04:25:42;98273.25;;;0.54;68.33
46111;BME280;31849;55.992;37.252;2023-02-03T04:30:46;98281.88;;;0.61;68.07
46111;BME280;31849;55.992;37.252;2023-02-03T04:35:49;98281.06;;;0.62;67.73
46111;BME280;31849;55.992;37.252;2023-02-03T04:40:54;98285.47;;;0.70;68.21
46111;BME280;31849;55.992;37.252;2023-02-03T04:45:58;98281.47;;;0.83;67.76
46111;BME280;31849;55.992;37.252;2023-02-03T04:51:03;98278.13;;;0.89;67.51
46111;BME280;31849;55.992;37.252;2023-02-03T04:56:08;98278.00;;;0.83;67.49
46111;BME280;31849;55.992;37.252;2023-02-03T05:01:11;98274.44;;;0.72;68.12
46111;BME280;31849;55.992;37.252;2023-02-03T05:06:15;98275.16;;;0.66;68.55
46111;BME280;31849;55.992;37.252;2023-02-03T05:11:20;98269.91;;;0.58;68.50
46111;BME280;31849;55.992;37.252;2023-02-03T05:16:23;98276.13;;;0.73;68.48
46111;BME280;31849;55.992;37.252;2023-02-03T05:21:27;98282.28;;;0.82;67.92
46111;BME280;31849;55.992;37.252;2023-02-03T05:26:32;98275.50;;;0.86;67.83
46111;BME280;31849;55.992;37.252;2023-02-03T05:31:35;98291.00;;;0.94;67.57
46111;BME280;31849;55.992;37.252;2023-02-03T05:36:39;98290.28;;;1.02;67.66
46111;BME280;31849;55.992;37.252;2023-02-03T05:41:44;98286.25;;;1.15;67.20
46111;BME280;31849;55.992;37.252;2023-02-03T05:46:59;98287.88;;;1.10;67.47
46111;BME280;31849;55.992;37.252;2023-02-03T05:52:03;98282.03;;;1.17;66.84
46111;BME280;31849;55.992;37.252;2023-02-03T05:57:08;98283.19;;;1.39;66.72
46111;BME280;31849;55.992;37.252;2023-02-03T06:02:11;98290.81;;;1.35;66.87
46111;BME280;31849;55.992;37.252;2023-02-03T06:07:15;98290.84;;;1.38;66.70
46111;BME280;31849;55.992;37.252;2023-02-03T06:12:20;98277.31;;;1.45;66.46
46111;BME280;31849;55.992;37.252;2023-02-03T06:17:23;98284.28;;;1.55;66.41
46111;BME280;31849;55.992;37.252;2023-02-03T06:22:26;98285.16;;;1.56;65.74
46111;BME280;31849;55.992;37.252;2023-02-03T06:27:31;98285.19;;;1.57;65.96
46111;BME280;31849;55.992;37.252;2023-02-03T06:32:34;98297.13;;;1.58;65.16
46111;BME280;31849;55.992;37.252;2023-02-03T06:37:38;98301.84;;;1.87;64.46
46111;BME280;31849;55.992;37.252;2023-02-03T06:42:46;98298.38;;;1.85;64.40
46111;BME280;31849;55.992;37.252;2023-02-03T06:47:49;98282.16;;;1.85;64.25
46111;BME280;31849;55.992;37.252;2023-02-03T06:52:53;98296.09;;;2.05;64.20
46111;BME280;31849;55.992;37.252;2023-02-03T06:57:58;98295.22;;;2.05;63.75
46111;BME280;31849;55.992;37.252;2023-02-03T07:03:02;98289.84;;;1.85;64.12
46111;BME280;31849;55.992;37.252;2023-02-03T07:08:05;98292.63;;;2.03;63.79
46111;BME280;31849;55.992;37.252;2023-02-03T07:13:10;98294.63;;;2.24;63.37
46111;BME280;31849;55.992;37.252;2023-02-03T07:18:14;98292.25;;;2.43;62.89
46111;BME280;31849;55.992;37.252;2023-02-03T07:23:39;98286.56;;;3.81;60.11
46111;BME280;31849;55.992;37.252;2023-02-03T07:28:44;98279.22;;;5.61;56.10
46111;BME280;31849;55.992;37.252;2023-02-03T07:33:47;98281.41;;;6.80;50.62
46111;BME280;31849;55.992;37.252;2023-02-03T07:38:51;98276.38;;;8.48;50.76
46111;BME280;31849;55.992;37.252;2023-02-03T07:43:55;98266.84;;;9.62;48.15
46111;BME280;31849;55.992;37.252;2023-02-03T07:48:58;98270.81;;;11.43;45.43
46111;BME280;31849;55.992;37.252;2023-02-03T07:54:05;98274.78;;;11.59;43.64
46111;BME280;31849;55.992;37.252;2023-02-03T07:59:10;98276.31;;;9.63;45.58
46111;BME280;31849;55.992;37.252;2023-02-03T08:04:13;98283.34;;;7.61;48.26
46111;BME280;31849;55.992;37.252;2023-02-03T08:09:18;98273.00;;;6.44;49.06
46111;BME280;31849;55.992;37.252;2023-02-03T08:14:23;98280.75;;;6.37;48.32
46111;BME280;31849;55.992;37.252;2023-02-03T08:19:26;98274.09;;;5.37;50.77
46111;BME280;31849;55.992;37.252;2023-02-03T08:24:30;98281.72;;;4.41;52.63
46111;BME280;31849;55.992;37.252;2023-02-03T08:29:35;98274.75;;;4.17;53.92
46111;BME280;31849;55.992;37.252;2023-02-03T08:34:38;98268.72;;;4.13;54.72
46111;BME280;31849;55.992;37.252;2023-02-03T08:39:42;98275.53;;;4.00;53.88
46111;BME280;31849;55.992;37.252;2023-02-03T08:44:47;98267.53;;;3.48;55.39
46111;BME280;31849;55.992;37.252;2023-02-03T08:49:50;98282.28;;;3.83;55.26
46111;BME280;31849;55.992;37.252;2023-02-03T08:54:54;98277.94;;;3.73;55.71
46111;BME280;31849;55.992;37.252;2023-02-03T08:59:59;98280.47;;;3.65;55.95
46111;BME280;31849;55.992;37.252;2023-02-03T09:05:04;98280.19;;;3.26;56.85
46111;BME280;31849;55.992;37.252;2023-02-03T09:10:09;98278.25;;;2.97;57.70
46111;BME280;31849;55.992;37.252;2023-02-03T09:15:14;98271.53;;;3.12;57.48
46111;BME280;31849;55.992;37.252;2023-02-03T09:20:17;98263.91;;;3.21;57.25
46111;BME280;31849;55.992;37.252;2023-02-03T09:25:21;98259.53;;;3.11;57.76
46111;BME280;31849;55.992;37.252;2023-02-03T09:30:26;98260.38;;;3.08;58.48
46111;BME280;31849;55.992;37.252;2023-02-03T09:35:32;98262.06;;;3.03;58.05
46111;BME280;31849;55.992;37.252;2023-02-03T09:40:36;98264.47;;;2.88;58.97
46111;BME280;31849;55.992;37.252;2023-02-03T09:45:41;98268.53;;;2.64;61.37
46111;BME280;31849;55.992;37.252;2023-02-03T09:50:45;98265.25;;;2.79;60.63
46111;BME280;31849;55.992;37.252;2023-02-03T09:55:51;98268.75;;;2.86;60.54
46111;BME280;31849;55.992;37.252;2023-02-03T10:00:57;98274.00;;;3.03;61.26
46111;BME280;31849;55.992;37.252;2023-02-03T10:06:18;98271.69;;;3.33;60.85
46111;BME280;31849;55.992;37.252;2023-02-03T10:11:37;98275.19;;;3.42;61.16
46111;BME280;31849;55.992;37.252;2023-02-03T10:16:54;98267.59;;;3.59;61.00
46111;BME280;31849;55.992;37.252;2023-02-03T10:22:04;98266.63;;;3.46;61.06
46111;BME280;31849;55.992;37.252;2023-02-03T10:27:15;98261.69;;;3.77;60.68
46111;BME280;31849;55.992;37.252;2023-02-03T10:32:23;98256.47;;;3.60;61.63
46111;BME280;31849;55.992;37.252;2023-02-03T10:37:29;98258.97;;;3.49;60.75
46111;BME280;31849;55.992;37.252;2023-02-03T10:42:34;98255.41;;;3.31;61.15
46111;BME280;31849;55.992;37.252;2023-02-03T10:47:57;98250.22;;;3.22;61.92
46111;BME280;31849;55.992;37.252;2023-02-03T10:53:19;98249.25;;;3.08;62.77
46111;BME280;31849;55.992;37.252;2023-02-03T10:58:26;98240.72;;;3.10;62.89
46111;BME280;31849;55.992;37.252;2023-02-03T11:03:31;98243.22;;;3.06;62.84
46111;BME280;31849;55.992;37.252;2023-02-03T11:08:37;98235.56;;;3.10;62.68
46111;BME280;31849;55.992;37.252;2023-02-03T11:13:41;98234.59;;;2.94;63.05
46111;BME280;31849;55.992;37.252;2023-02-03T11:18:53;98239.72;;;2.96;62.65
46111;BME280;31849;55.992;37.252;2023-02-03T11:24:02;98235.44;;;2.95;62.78
46111;BME280;31849;55.992;37.252;2023-02-03T11:29:15;98237.25;;;3.08;62.53
46111;BME280;31849;55.992;37.252;2023-02-03T11:34:23;98243.16;;;2.99;62.45
46111;BME280;31849;55.992;37.252;2023-02-03T11:39:29;98236.44;;;3.14;62.11
46111;BME280;31849;55.992;37.252;2023-02-03T11:44:36;98235.75;;;3.40;61.64
46111;BME280;31849;55.992;37.252;2023-02-03T11:50:04;98225.66;;;3.67;61.26
46111;BME280;31849;55.992;37.252;2023-02-03T11:55:20;98236.69;;;3.51;60.44
46111;BME280;31849;55.992;37.252;2023-02-03T12:00:37;98225.50;;;3.41;61.29
46111;BME280;31849;55.992;37.252;2023-02-03T12:06:00;98221.28;;;3.49;60.78
46111;BME280;31849;55.992;37.252;2023-02-03T12:11:15;98215.97;;;3.23;61.41
46111;BME280;31849;55.992;37.252;2023-02-03T12:16:37;98215.16;;;3.32;61.00
46111;BME280;31849;55.992;37.252;2023-02-03T12:21:50;98210.50;;;2.81;62.57
46111;BME280;31849;55.992;37.252;2023-02-03T12:27:06;98211.44;;;2.90;62.62
46111;BME280;31849;55.992;37.252;2023-02-03T12:32:19;98213.69;;;2.54;63.42
46111;BME280;31849;55.992;37.252;2023-02-03T12:37:31;98214.72;;;2.70;62.96
46111;BME280;31849;55.992;37.252;2023-02-03T12:42:38;98219.88;;;2.76;63.60
46111;BME280;31849;55.992;37.252;2023-02-03T12:47:47;98216.28;;;2.56;63.89
46111;BME280;31849;55.992;37.252;2023-02-03T12:52:57;98211.44;;;2.90;62.70
46111;BME280;31849;55.992;37.252;2023-02-03T12:58:05;98216.69;;;3.05;62.67
46111;BME280;31849;55.992;37.252;2023-02-03T13:03:18;98216.59;;;2.91;63.50
46111;BME280;31849;55.992;37.252;2023-02-03T13:08:30;98207.94;;;2.80;63.35
46111;BME280;31849;55.992;37.252;2023-02-03T13:13:41;98206.84;;;2.55;63.96
46111;BME280;31849;55.992;37.252;2023-02-03T13:18:51;98214.47;;;2.45;63.67
46111;BME280;31849;55.992;37.252;2023-02-03T13:23:57;98214.53;;;2.52;63.66
46111;BME280;31849;55.992;37.252;2023-02-03T13:29:10;98210.94;;;2.37;64.97
46111;BME280;31849;55.992;37.252;2023-02-03T13:34:42;98194.56;;;2.21;65.27
46111;BME280;31849;55.992;37.252;2023-02-03T13:40:12;98207.41;;;2.23;65.53
46111;BME280;31849;55.992;37.252;2023-02-03T13:45:24;98210.91;;;2.34;64.55
46111;BME280;31849;55.992;37.252;2023-02-03T13:50:30;98220.25;;;2.24;64.91
46111;BME280;31849;55.992;37.252;2023-02-03T13:55:40;98214.00;;;2.02;65.72
46111;BME280;31849;55.992;37.252;2023-02-03T14:01:00;98222.41;;;1.90;66.28
46111;BME280;31849;55.992;37.252;2023-02-03T14:06:14;98219.84;;;1.90;66.24
46111;BME280;31849;55.992;37.252;2023-02-03T14:11:40;98229.06;;;1.76;67.38
46111;BME280;31849;55.992;37.252;2023-02-03T14:16:45;98227.44;;;1.81;66.63
46111;BME280;31849;55.992;37.252;2023-02-03T14:21:52;98229.88;;;1.75;67.27
46111;BME280;31849;55.992;37.252;2023-02-03T14:26:58;98230.72;;;1.71;67.04
46111;BME280;31849;55.992;37.252;2023-02-03T14:32:05;98227.31;;;1.73;67.33
46111;BME280;31849;55.992;37.252;2023-02-03T14:37:17;98218.81;;;1.78;67.67
46111;BME280;31849;55.992;37.252;2023-02-03T14:42:34;98224.88;;;1.81;67.76
46111;BME280;31849;55.992;37.252;2023-02-03T14:47:51;98220.56;;;1.80;67.85
46111;BME280;31849;55.992;37.252;2023-02-03T14:53:11;98218.69;;;1.67;68.36
46111;BME280;31849;55.992;37.252;2023-02-03T14:58:25;98224.81;;;1.80;67.82
46111;BME280;31849;55.992;37.252;2023-02-03T15:03:30;98232.59;;;1.84;67.46
46111;BME280;31849;55.992;37.252;2023-02-03T15:08:41;98224.91;;;1.84;67.94
46111;BME280;31849;55.992;37.252;2023-02-03T15:13:47;98224.03;;;1.84;67.64
46111;BME280;31849;55.992;37.252;2023-02-03T15:18:54;98233.28;;;1.72;69.18
46111;BME280;31849;55.992;37.252;2023-02-03T15:23:58;98231.47;;;1.64;68.52
46111;BME280;31849;55.992;37.252;2023-02-03T15:29:03;98230.78;;;1.75;67.69
46111;BME280;31849;55.992;37.252;2023-02-03T15:34:12;98229.13;;;1.82;67.90
46111;BME280;31849;55.992;37.252;2023-02-03T15:39:23;98239.13;;;1.62;68.90
46111;BME280;31849;55.992;37.252;2023-02-03T15:44:32;98236.50;;;1.57;68.75
46111;BME280;31849;55.992;37.252;2023-02-03T15:49:39;98227.81;;;1.48;69.25
46111;BME280;31849;55.992;37.252;2023-02-03T15:54:46;98238.88;;;1.45;69.40
46111;BME280;31849;55.992;37.252;2023-02-03T15:59:57;;;;1.50;
46111;BME280;31849;55.992;37.252;2023-02-03T16:05:22;98244.88;;;1.44;70.60
46111;BME280;31849;55.992;37.252;2023-02-03T16:10:28;98248.25;;;1.42;69.41
46111;BME280;31849;55.992;37.252;2023-02-03T16:15:34;98242.34;;;1.47;69.24
46111;BME280;31849;55.992;37.252;2023-02-03T16:20:47;98243.25;;;1.51;69.44
46111;BME280;31849;55.992;37.252;2023-02-03T16:26:08;98241.75;;;1.67;69.08
46111;BME280;31849;55.992;37.252;2023-02-03T16:31:20;98247.63;;;1.60;69.02
46111;BME280;31849;55.992;37.252;2023-02-03T16:36:43;98244.03;;;1.48;68.96
46111;BME280;31849;55.992;37.252;2023-02-03T16:42:11;98253.53;;;1.54;69.59
46111;BME280;31849;55.992;37.252;2023-02-03T16:47:37;98257.00;;;1.56;69.02
46111;BME280;31849;55.992;37.252;2023-02-03T16:52:58;98264.53;;;1.48;68.99
46111;BME280;31849;55.992;37.252;2023-02-03T16:58:02;98257.00;;;1.56;68.20
46111;BME280;31849;55.992;37.252;2023-02-03T17:03:09;98267.34;;;1.64;68.05
46111;BME280;31849;55.992;37.252;2023-02-03T17:08:14;98262.94;;;1.55;67.73
46111;BME280;31849;55.992;37.252;2023-02-03T17:13:20;98267.13;;;1.51;68.04
46111;BME280;31849;55.992;37.252;2023-02-03T17:18:25;98272.09;;;1.39;68.06
46111;BME280;31849;55.992;37.252;2023-02-03T17:23:28;98276.38;;;1.40;67.94
46111;BME280;31849;55.992;37.252;2023-02-03T17:28:32;98274.63;;;1.37;67.43
46111;BME280;31849;55.992;37.252;2023-02-03T17:33:37;98285.03;;;1.48;67.43
46111;BME280;31849;55.992;37.252;2023-02-03T17:38:40;98283.34;;;1.47;66.61
46111;BME280;31849;55.992;37.252;2023-02-03T17:44:02;98279.00;;;1.45;66.84
46111;BME280;31849;55.992;37.252;2023-02-03T17:49:24;98286.72;;;1.46;67.07
46111;BME280;31849;55.992;37.252;2023-02-03T17:54:45;98290.34;;;1.61;66.36
46111;BME280;31849;55.992;37.252;2023-02-03T17:59:49;98286.03;;;1.56;65.95
46111;BME280;31849;55.992;37.252;2023-02-03T18:04:57;98296.84;;;1.37;66.21
46111;BME280;31849;55.992;37.252;2023-02-03T18:10:00;98303.41;;;1.21;66.36
46111;BME280;31849;55.992;37.252;2023-02-03T18:15:05;98305.31;;;1.33;66.37
46111;BME280;31849;55.992;37.252;2023-02-03T18:20:11;98310.19;;;1.17;66.01
46111;BME280;31849;55.992;37.252;2023-02-03T18:25:15;98312.72;;;1.16;65.71
46111;BME280;31849;55.992;37.252;2023-02-03T18:30:19;98320.25;;;1.08;66.20
46111;BME280;31849;55.992;37.252;2023-02-03T18:35:24;98321.19;;;1.12;65.43
46111;BME280;31849;55.992;37.252;2023-02-03T18:40:28;98329.78;;;1.17;65.32
46111;BME280;31849;55.992;37.252;2023-02-03T18:45:32;98331.50;;;1.16;64.97
46111;BME280;31849;55.992;37.252;2023-02-03T18:50:41;98329.81;;;1.18;64.92
46111;BME280;31849;55.992;37.252;2023-02-03T18:55:44;98330.81;;;1.27;65.00
46111;BME280;31849;55.992;37.252;2023-02-03T19:00:48;98327.25;;;1.18;64.73
46111;BME280;31849;55.992;37.252;2023-02-03T19:05:53;98345.28;;;1.26;65.02
46111;BME280;31849;55.992;37.252;2023-02-03T19:10:56;98346.78;;;1.12;64.74
46111;BME280;31849;55.992;37.252;2023-02-03T19:16:00;98349.41;;;1.15;64.60
46111;BME280;31849;55.992;37.252;2023-02-03T19:21:05;98353.91;;;1.30;64.31
46111;BME280;31849;55.992;37.252;2023-02-03T19:26:09;98352.28;;;1.36;64.22
46111;BME280;31849;55.992;37.252;2023-02-03T19:31:14;98351.38;;;1.31;64.13
46111;BME280;31849;55.992;37.252;2023-02-03T19:36:18;98354.88;;;1.38;63.46
46111;BME280;31849;55.992;37.252;2023-02-03T19:41:22;98346.09;;;1.22;63.65
46111;BME280;31849;55.992;37.252;2023-02-03T19:46:26;98362.66;;;1.43;63.44
46111;BME280;31849;55.992;37.252;2023-02-03T19:51:34;98367.88;;;1.47;63.05
46111;BME280;31849;55.992;37.252;2023-02-03T19:56:38;98374.41;;;1.30;63.51
46111;BME280;31849;55.992;37.252;2023-02-03T20:01:41;98367.50;;;1.26;63.78
46111;BME280;31849;55.992;37.252;2023-02-03T20:06:46;98374.44;;;1.33;63.24
46111;BME280;31849;55.992;37.252;2023-02-03T20:11:49;98379.00;;;1.51;63.37
46111;BME280;31849;55.992;37.252;2023-02-03T20:16:53;98391.50;;;1.31;63.60
46111;BME280;31849;55.992;37.252;2023-02-03T20:21:58;98394.91;;;1.31;64.07
46111;BME280;31849;55.992;37.252;2023-02-03T20:27:01;98397.41;;;1.27;63.21
46111;BME280;31849;55.992;37.252;2023-02-03T20:32:04;98399.19;;;1.31;63.25
46111;BME280;31849;55.992;37.252;2023-02-03T20:37:10;98394.56;;;1.13;63.75
46111;BME280;31849;55.992;37.252;2023-02-03T20:42:14;98410.91;;;1.19;63.81
46111;BME280;31849;55.992;37.252;2023-02-03T20:47:18;98413.50;;;1.21;63.97
46111;BME280;31849;55.992;37.252;2023-02-03T20:52:24;98416.00;;;1.16;64.08
46111;BME280;31849;55.992;37.252;2023-02-03T20:57:28;98423.78;;;1.22;63.75
46111;BME280;31849;55.992;37.252;2023-02-03T21:02:32;98434.06;;;1.26;63.62
46111;BME280;31849;55.992;37.252;2023-02-03T21:07:57;98434.13;;;1.29;63.83
46111;BME280;31849;55.992;37.252;2023-02-03T21:13:00;98437.59;;;1.31;63.63
46111;BME280;31849;55.992;37.252;2023-02-03T21:18:26;98442.94;;;1.43;63.39
46111;BME280;31849;55.992;37.252;2023-02-03T21:23:36;98445.38;;;1.37;64.07
46111;BME280;31849;55.992;37.252;2023-02-03T21:28:41;98447.09;;;1.38;63.39
46111;BME280;31849;55.992;37.252;2023-02-03T21:33:45;98442.53;;;1.21;63.97
46111;BME280;31849;55.992;37.252;2023-02-03T21:38:51;98451.38;;;1.39;63.91
46111;BME280;31849;55.992;37.252;2023-02-03T21:43:56;98455.38;;;1.25;63.73
46111;BME280;31849;55.992;37.252;2023-02-03T21:49:01;98465.75;;;1.29;63.98
46111;BME280;31849;55.992;37.252;2023-02-03T21:54:25;98458.09;;;1.31;63.70
46111;BME280;31849;55.992;37.252;2023-02-03T21:59:37;98476.09;;;1.35;63.61
46111;BME280;31849;55.992;37.252;2023-02-03T22:04:43;98478.75;;;1.42;63.66
46111;BME280;31849;55.992;37.252;2023-02-03T22:09:47;98482.41;;;1.54;64.36
46111;BME280;31849;55.992;37.252;2023-02-03T22:14:52;98474.53;;;1.44;63.99
46111;BME280;31849;55.992;37.252;2023-02-03T22:19:56;98472.97;;;1.52;63.68
46111;BME280;31849;55.992;37.252;2023-02-03T22:25:00;98471.31;;;1.55;63.85
46111;BME280;31849;55.992;37.252;2023-02-03T22:30:05;98485.25;;;1.70;63.81
46111;BME280;31849;55.992;37.252;2023-02-03T22:35:09;98477.69;;;1.78;63.34
46111;BME280;31849;55.992;37.252;2023-02-03T22:40:15;98481.91;;;1.74;63.85
46111;BME280;31849;55.992;37.252;2023-02-03T22:45:20;98488.53;;;1.63;63.86
46111;BME280;31849;55.992;37.252;2023-02-03T22:50:23;98486.03;;;1.67;63.47
46111;BME280;31849;55.992;37.252;2023-02-03T22:55:38;98492.19;;;1.75;63.80
46111;BME280;31849;55.992;37.252;2023-02-03T23:00:41;98491.47;;;1.84;63.23
46111;BME280;31849;55.992;37.252;2023-02-03T23:05:45;98495.63;;;1.78;63.58
46111;BME280;31849;55.992;37.252;2023-02-03T23:10:50;98489.63;;;1.75;63.65
46111;BME280;31849;55.992;37.252;2023-02-03T23:15:53;98500.63;;;1.70;63.45
46111;BME280;31849;55.992;37.252;2023-02-03T23:20:56;98506.63;;;1.72;63.33
46111;BME280;31849;55.992;37.252;2023-02-03T23:26:01;98511.66;;;1.67;63.71
46111;BME280;31849;55.992;37.252;2023-02-03T23:31:05;98515.34;;;1.82;63.56
46111;BME280;31849;55.992;37.252;2023-02-03T23:36:09;98516.28;;;1.87;63.07
46111;BME280;31849;55.992;37.252;2023-02-03T23:41:14;98518.81;;;1.85;63.50
46111;BME280;31849;55.992;37.252;2023-02-03T23:46:17;98521.28;;;1.81;63.53
46111;BME280;31849;55.992;37.252;2023-02-03T23:51:21;98527.13;;;1.72;63.45
46111;BME280;31849;55.992;37.252;2023-02-03T23:56:26;98529.72;;;1.75;63.70
